Time;durP1;ratioP1;P1;durP2;ratioP2;P2;SDS_P1;SDS_P2;PMS_P1;PMS_P2;Temp;Humidity;BMP_temperature;BMP_pressure;BME280_temperature;BME280_humidity;BME280_pressure;Samples;Min_cycle;Max_cycle;Signal;HPM_P1;HPM_P2
2022/04/02 00:00:06;;;;;;;1.27;0.20;;;21.80;41.70;;;;;;5071870;28;20064;-68
2022/04/02 00:02:39;;;;;;;1.95;0.20;;;21.70;41.70;;;;;;5075116;28;20118;-68
2022/04/02 00:05:07;;;;;;;0.60;0.10;;;21.70;41.80;;;;;;5070853;28;20044;-68
2022/04/02 00:07:34;;;;;;;4.18;0.45;;;21.60;41.70;;;;;;5073084;28;20043;-69
2022/04/02 00:10:01;;;;;;;0.40;0.10;;;21.60;41.80;;;;;;5076180;28;20131;-70
2022/04/02 00:12:30;;;;;;;0.43;0.10;;;21.60;41.80;;;;;;5075159;28;20094;-68
2022/04/02 00:14:58;;;;;;;1.27;0.10;;;21.50;41.80;;;;;;5076240;28;20040;-70
2022/04/02 00:17:25;;;;;;;1.60;0.20;;;21.50;41.90;;;;;;5077840;28;20039;-70
2022/04/02 00:19:54;;;;;;;0.68;0.20;;;21.50;41.90;;;;;;5069269;28;20101;-71
2022/04/02 00:22:21;;;;;;;0.30;0.30;;;21.40;41.90;;;;;;5073308;28;20505;-71
2022/04/02 00:24:48;;;;;;;1.48;0.65;;;21.40;41.90;;;;;;5079179;28;20475;-71
2022/04/02 00:27:15;;;;;;;0.17;0.10;;;21.40;41.90;;;;;;5078190;28;20039;-72
2022/04/02 00:29:43;;;;;;;2.58;0.35;;;21.30;41.90;;;;;;5073853;28;20040;-72
2022/04/02 00:32:10;;;;;;;2.10;0.10;;;21.30;42.00;;;;;;5073833;28;20055;-72
2022/04/02 00:34:38;;;;;;;0.82;0.20;;;21.30;42.00;;;;;;5081781;28;20584;-72
2022/04/02 00:37:07;;;;;;;2.40;0.15;;;21.20;41.90;;;;;;5068596;28;20051;-72
2022/04/02 00:39:34;;;;;;;3.53;0.10;;;21.20;41.90;;;;;;5075837;28;20051;-72
2022/04/02 00:42:02;;;;;;;2.17;0.10;;;21.20;42.60;;;;;;5077395;28;20512;-72
2022/04/02 00:44:29;;;;;;;0.43;0.10;;;21.20;42.60;;;;;;5070111;28;20044;-68
2022/04/02 00:46:57;;;;;;;1.90;0.45;;;21.10;42.00;;;;;;5069436;28;20113;-67
2022/04/02 00:49:25;;;;;;;0.57;0.10;;;21.10;42.30;;;;;;5082437;28;20052;-69
2022/04/02 00:51:53;;;;;;;0.85;0.68;;;21.10;42.00;;;;;;5071606;28;20040;-69
2022/04/02 00:54:21;;;;;;;2.35;0.20;;;21.00;41.90;;;;;;5072014;28;20040;-69
2022/04/02 00:56:48;;;;;;;0.47;0.10;;;21.00;41.90;;;;;;5076913;28;20097;-69
2022/04/02 00:59:16;;;;;;;0.28;0.28;;;21.00;41.90;;;;;;5071210;28;20040;-69
2022/04/02 01:01:45;;;;;;;0.57;0.17;;;21.00;42.00;;;;;;5066038;28;20079;-69
2022/04/02 01:04:14;;;;;;;0.30;0.10;;;21.00;42.00;;;;;;5070348;28;20056;-70
2022/04/02 01:06:45;;;;;;;2.05;0.08;;;20.90;41.90;;;;;;5074586;28;20060;-71
2022/04/02 01:09:20;;;;;;;0.32;0.20;;;20.90;41.90;;;;;;5070888;28;20037;-71
2022/04/02 01:11:52;;;;;;;1.65;0.10;;;20.90;41.90;;;;;;5072959;28;20040;-71
2022/04/02 01:14:21;;;;;;;1.08;0.25;;;20.80;41.70;;;;;;5071844;28;20047;-68
2022/04/02 01:16:51;;;;;;;0.28;0.10;;;20.90;41.80;;;;;;5070930;28;20055;-68
2022/04/02 01:19:25;;;;;;;0.22;0.22;;;20.80;41.70;;;;;;5083493;28;20044;-67
2022/04/02 01:22:07;;;;;;;0.57;0.20;;;20.80;41.70;;;;;;5071363;28;20095;-66
2022/04/02 01:24:46;;;;;;;1.38;0.10;;;20.80;41.70;;;;;;5078888;28;20047;-66
2022/04/02 01:27:13;;;;;;;0.95;0.10;;;20.80;41.70;;;;;;5069205;28;20060;-67
2022/04/02 01:29:41;;;;;;;0.95;0.10;;;20.80;41.70;;;;;;5077714;28;20040;-66
2022/04/02 01:32:12;;;;;;;1.83;0.82;;;20.70;41.60;;;;;;5069770;28;20101;-68
2022/04/02 01:34:41;;;;;;;0.10;0.10;;;20.70;42.00;;;;;;5081753;28;20572;-69
2022/04/02 01:37:17;;;;;;;0.95;0.10;;;20.70;41.70;;;;;;5070461;28;20064;-70
2022/04/02 01:39:49;;;;;;;0.75;0.17;;;20.70;41.60;;;;;;5083018;28;20068;-69
2022/04/02 01:42:24;;;;;;;0.95;0.15;;;20.70;41.60;;;;;;5076243;28;20123;-69
2022/04/02 01:44:59;;;;;;;0.68;0.10;;;20.70;41.60;;;;;;5076281;28;20055;-68
2022/04/02 01:47:51;;;;;;;1.48;0.10;;;20.60;41.60;;;;;;5064727;28;20040;-69
2022/04/02 01:50:20;;;;;;;0.28;0.10;;;20.60;41.60;;;;;;5077055;28;20036;-68
2022/04/02 01:52:52;;;;;;;0.15;0.10;;;20.60;41.60;;;;;;5064916;28;20439;-69
2022/04/02 01:55:20;;;;;;;0.65;0.03;;;20.60;41.60;;;;;;5068034;28;20056;-69
2022/04/02 01:57:54;;;;;;;0.88;0.10;;;20.60;41.60;;;;;;5075867;28;20048;-70
2022/04/02 02:00:30;;;;;;;1.42;0.08;;;20.60;41.60;;;;;;5078232;28;20075;-69
2022/04/02 02:02:58;;;;;;;0.20;0.10;;;20.50;41.50;;;;;;5077483;28;20032;-67
2022/04/02 02:05:26;;;;;;;1.10;0.20;;;20.50;41.40;;;;;;5069720;28;20126;-69
2022/04/02 02:07:55;;;;;;;0.55;0.38;;;20.50;41.40;;;;;;5069981;28;20941;-69
2022/04/02 02:10:38;;;;;;;0.10;0.10;;;20.50;41.30;;;;;;5066636;28;20048;-68
2022/04/02 02:13:38;;;;;;;0.05;0.05;;;20.50;41.40;;;;;;5068286;28;20048;-67
2022/04/02 02:16:10;;;;;;;0.22;0.10;;;20.40;41.40;;;;;;5072869;28;20068;-67
2022/04/02 02:18:37;;;;;;;0.10;0.00;;;20.40;41.40;;;;;;5071970;28;20238;-68
2022/04/02 02:21:05;;;;;;;0.30;0.10;;;20.40;41.40;;;;;;5072805;28;20075;-69
2022/04/02 02:23:34;;;;;;;0.35;0.10;;;20.40;41.40;;;;;;5071852;28;20058;-68
2022/04/02 02:26:01;;;;;;;4.85;0.00;;;20.40;41.40;;;;;;5071974;28;20041;-67
2022/04/02 02:28:28;;;;;;;0.10;0.08;;;20.40;41.40;;;;;;5065305;28;20105;-67
2022/04/02 02:30:58;;;;;;;1.55;0.00;;;20.40;41.40;;;;;;5074528;28;20978;-68
2022/04/02 02:36:13;;;;;;;0.10;0.00;;;20.40;41.50;;;;;;5073779;28;20048;-67
2022/04/02 02:39:04;;;;;;;0.40;0.17;;;20.40;41.50;;;;;;5071848;28;20047;-67
2022/04/02 02:41:38;;;;;;;0.00;0.00;;;20.30;41.50;;;;;;5071579;28;20067;-65
2022/04/02 02:44:09;;;;;;;2.28;0.00;;;20.30;41.50;;;;;;5079235;28;20812;-67
2022/04/02 02:46:42;;;;;;;0.47;0.40;;;20.30;41.40;;;;;;5064416;28;20098;-67
2022/04/02 02:49:16;;;;;;;0.20;0.03;;;20.30;41.40;;;;;;5082544;28;20048;-67
2022/04/02 02:51:48;;;;;;;0.03;0.00;;;20.30;41.40;;;;;;5071788;28;20056;-67
2022/04/02 02:54:21;;;;;;;0.20;0.00;;;20.30;41.40;;;;;;5071863;28;20048;-67
2022/04/02 02:56:49;;;;;;;0.28;0.28;;;20.30;41.40;;;;;;5080510;28;20115;-67
2022/04/02 02:59:16;;;;;;;1.35;0.10;;;20.30;41.40;;;;;;5068932;28;20453;-66
2022/04/02 03:01:43;;;;;;;0.43;0.10;;;20.30;41.40;;;;;;5073125;28;20045;-65
2022/04/02 03:04:11;;;;;;;0.28;0.10;;;20.20;41.30;;;;;;5071650;28;20052;-67
2022/04/02 03:06:39;;;;;;;0.77;0.00;;;20.30;41.30;;;;;;5065569;28;20044;-68
2022/04/02 03:09:07;;;;;;;1.13;0.10;;;20.20;41.20;;;;;;5069925;28;20087;-68
2022/04/02 03:11:36;;;;;;;0.00;0.00;;;20.20;41.20;;;;;;5071996;28;20055;-68
2022/04/02 03:14:03;;;;;;;0.32;0.32;;;20.20;41.20;;;;;;5069006;28;20043;-68
2022/04/02 03:16:32;;;;;;;1.00;0.10;;;20.20;41.10;;;;;;5083776;28;20044;-68
2022/04/02 03:19:06;;;;;;;0.03;0.00;;;20.20;41.10;;;;;;5088058;28;20048;-70
2022/04/02 03:21:34;;;;;;;0.40;0.00;;;20.20;41.10;;;;;;5077481;28;20045;-71
2022/04/02 03:24:02;;;;;;;0.10;0.00;;;20.20;41.00;;;;;;5077394;28;20064;-69
2022/04/02 03:26:34;;;;;;;0.20;0.00;;;20.20;41.00;;;;;;5074331;28;20139;-69
2022/04/02 03:29:07;;;;;;;0.28;0.00;;;20.10;40.90;;;;;;5072473;28;20070;-69
2022/04/02 03:31:34;;;;;;;0.95;0.05;;;20.10;40.90;;;;;;5074391;28;20049;-71
2022/04/02 03:34:02;;;;;;;0.50;0.15;;;20.10;40.90;;;;;;5057425;28;20500;-71
2022/04/02 03:36:29;;;;;;;0.40;0.00;;;20.10;40.90;;;;;;5076263;28;20816;-69
2022/04/02 03:38:57;;;;;;;1.58;0.05;;;20.10;40.80;;;;;;5076937;28;20048;-70
2022/04/02 03:41:26;;;;;;;0.00;0.00;;;20.10;40.80;;;;;;5072918;28;20036;-70
2022/04/02 03:43:56;;;;;;;0.22;0.10;;;20.10;40.80;;;;;;5068362;28;20044;-68
2022/04/02 03:49:16;;;;;;;2.40;0.10;;;20.00;40.70;;;;;;5082985;28;20051;-68
2022/04/02 03:51:45;;;;;;;1.20;0.00;;;20.00;40.70;;;;;;5075424;28;20127;-67
2022/04/02 03:54:17;;;;;;;0.00;0.00;;;20.10;40.70;;;;;;5075320;28;20037;-66
2022/04/02 03:56:50;;;;;;;0.50;0.00;;;20.00;40.60;;;;;;5081077;28;20455;-67
2022/04/02 03:59:18;;;;;;;0.20;0.00;;;20.00;40.60;;;;;;5071899;28;20043;-67
2022/04/02 04:01:52;;;;;;;0.00;0.00;;;20.00;40.60;;;;;;5067739;28;20064;-67
2022/04/02 04:04:20;;;;;;;2.08;0.20;;;20.00;40.60;;;;;;5074730;28;20048;-66
2022/04/02 04:06:48;;;;;;;0.22;0.00;;;20.00;40.60;;;;;;5078315;28;20528;-67
2022/04/02 04:09:17;;;;;;;1.60;0.00;;;20.00;40.50;;;;;;5058708;28;20080;-66
2022/04/02 04:11:48;;;;;;;1.50;0.30;;;20.00;40.50;;;;;;5073520;28;20540;-66
2022/04/02 04:14:16;;;;;;;0.50;0.00;;;20.00;40.50;;;;;;5070738;28;20040;-66
2022/04/02 04:16:44;;;;;;;0.30;0.00;;;20.00;40.40;;;;;;5066753;28;20086;-66
2022/04/02 04:19:13;;;;;;;0.77;0.30;;;19.90;40.40;;;;;;5069976;28;20129;-66
2022/04/02 04:21:43;;;;;;;1.73;0.10;;;19.90;40.30;;;;;;5078264;28;20121;-66
2022/04/02 04:24:11;;;;;;;0.10;0.00;;;19.90;40.30;;;;;;5073819;28;20044;-66
2022/04/02 04:26:39;;;;;;;0.55;0.03;;;19.90;40.30;;;;;;5075657;28;20139;-71
2022/04/02 04:29:07;;;;;;;0.80;0.00;;;19.90;40.20;;;;;;5070936;28;20412;-69
2022/04/02 04:31:34;;;;;;;1.55;0.00;;;19.90;40.20;;;;;;5073414;28;20032;-69
2022/04/02 04:34:02;;;;;;;0.10;0.00;;;19.90;40.20;;;;;;5073115;28;20170;-70
2022/04/02 04:36:31;;;;;;;1.48;0.10;;;19.80;40.20;;;;;;5075467;28;20032;-70
2022/04/02 04:38:58;;;;;;;0.50;0.10;;;19.90;40.20;;;;;;5073295;28;20040;-69
2022/04/02 04:41:26;;;;;;;1.13;0.10;;;19.90;40.10;;;;;;5070526;28;20044;-70
2022/04/02 04:43:57;;;;;;;0.10;0.00;;;19.80;40.10;;;;;;5084680;28;20430;-68
2022/04/02 04:46:33;;;;;;;6.43;0.15;;;19.80;40.10;;;;;;5070525;28;20037;-68
2022/04/02 04:49:01;;;;;;;0.90;0.05;;;19.80;40.10;;;;;;5086331;28;20508;-66
2022/04/02 04:51:34;;;;;;;0.20;0.20;;;19.80;40.10;;;;;;5072497;28;20133;-69
2022/04/02 04:54:03;;;;;;;0.45;0.10;;;19.80;40.10;;;;;;5075741;28;20040;-69
2022/04/02 04:56:30;;;;;;;1.23;0.05;;;19.80;40.10;;;;;;5073974;28;20496;-65
2022/04/02 04:58:57;;;;;;;1.38;0.10;;;19.80;40.20;;;;;;5068531;28;20044;-67
2022/04/02 05:01:30;;;;;;;0.20;0.20;;;19.80;40.20;;;;;;5082094;28;20600;-69
2022/04/02 05:03:57;;;;;;;0.93;0.15;;;19.80;40.80;;;;;;5077550;28;20063;-69
2022/04/02 05:06:25;;;;;;;8.32;0.10;;;19.80;40.20;;;;;;5078730;28;20079;-70
2022/04/02 05:08:57;;;;;;;1.95;0.10;;;19.70;40.30;;;;;;5076734;28;20043;-70
2022/04/02 05:11:31;;;;;;;3.08;0.13;;;19.80;40.50;;;;;;5071421;28;20060;-68
2022/04/02 05:13:59;;;;;;;9.75;0.70;;;19.80;40.90;;;;;;5071090;28;20732;-68
2022/04/02 05:16:27;;;;;;;4.28;0.10;;;19.80;41.20;;;;;;5079223;28;20505;-68
2022/04/02 05:18:57;;;;;;;4.53;0.32;;;19.80;41.20;;;;;;5082973;28;20041;-68
2022/04/02 05:21:26;;;;;;;0.73;0.47;;;19.80;41.10;;;;;;5080771;28;20032;-67
2022/04/02 05:23:56;;;;;;;4.68;0.30;;;19.80;41.00;;;;;;5076157;28;20092;-68
2022/04/02 05:26:25;;;;;;;4.68;0.35;;;19.80;41.00;;;;;;5076831;28;20438;-66
2022/04/02 05:28:54;;;;;;;5.05;0.47;;;19.80;41.00;;;;;;5071446;28;20108;-67
2022/04/02 05:31:21;;;;;;;18.33;1.17;;;19.80;41.10;;;;;;5072992;28;20052;-68
2022/04/02 05:33:48;;;;;;;13.32;0.50;;;19.80;41.20;;;;;;5072126;28;20044;-67
2022/04/02 05:36:16;;;;;;;6.82;0.40;;;19.80;41.30;;;;;;5076552;28;20248;-73
2022/04/02 05:38:44;;;;;;;7.82;0.68;;;19.80;41.20;;;;;;5068401;28;20411;-73
2022/04/02 05:41:12;;;;;;;3.58;0.20;;;19.80;41.10;;;;;;5051026;28;20068;-73
2022/04/02 05:43:39;;;;;;;9.57;0.20;;;19.80;41.00;;;;;;5082412;28;20055;-73
2022/04/02 05:46:07;;;;;;;11.23;0.50;;;19.70;40.90;;;;;;5075002;28;20115;-73
2022/04/02 05:48:34;;;;;;;4.93;0.15;;;19.70;40.90;;;;;;5071517;28;20041;-73
2022/04/02 05:51:01;;;;;;;6.78;0.22;;;19.70;40.80;;;;;;5072517;28;20556;-73
2022/04/02 05:53:29;;;;;;;9.23;0.35;;;19.70;40.70;;;;;;5072901;28;20691;-73
2022/04/02 05:55:56;;;;;;;0.88;0.20;;;19.60;40.60;;;;;;5072534;28;20121;-73
2022/04/02 05:58:25;;;;;;;5.90;0.63;;;19.60;40.60;;;;;;5067921;28;20173;-73
2022/04/02 06:00:52;;;;;;;6.00;0.52;;;19.50;40.60;;;;;;5074136;28;20075;-74
2022/04/02 06:03:20;;;;;;;3.28;0.10;;;19.50;40.60;;;;;;5074098;28;20043;-74
2022/04/02 06:05:48;;;;;;;3.42;0.20;;;19.50;40.60;;;;;;5072605;28;20053;-73
2022/04/02 06:08:16;;;;;;;1.67;0.43;;;19.50;40.50;;;;;;5067737;28;20064;-73
2022/04/02 06:10:44;;;;;;;5.47;0.20;;;19.50;40.50;;;;;;5068863;28;20524;-74
2022/04/02 06:13:11;;;;;;;0.68;0.40;;;19.40;40.40;;;;;;5075415;28;20092;-73
2022/04/02 06:15:40;;;;;;;0.50;0.10;;;19.40;40.30;;;;;;5071923;28;20060;-73
2022/04/02 06:18:08;;;;;;;2.80;0.10;;;19.40;40.40;;;;;;5077240;28;20032;-73
2022/04/02 06:20:35;;;;;;;0.77;0.10;;;19.40;40.30;;;;;;5080832;28;20154;-73
2022/04/02 06:23:02;;;;;;;1.75;0.13;;;19.40;40.30;;;;;;5071938;28;20036;-72
2022/04/02 06:25:29;;;;;;;1.90;0.10;;;19.30;40.20;;;;;;5082421;28;20572;-73
2022/04/02 06:27:56;;;;;;;3.42;0.30;;;19.30;40.20;;;;;;5075313;28;20033;-73
2022/04/02 06:30:23;;;;;;;0.43;0.20;;;19.30;40.20;;;;;;5077919;28;20472;-72
2022/04/02 06:32:52;;;;;;;9.02;2.30;;;19.30;40.10;;;;;;5072150;28;20045;-72
2022/04/02 06:35:19;;;;;;;0.60;0.43;;;19.20;40.10;;;;;;5052464;28;20044;-72
2022/04/02 06:37:48;;;;;;;3.78;0.20;;;19.20;40.10;;;;;;5073854;28;20045;-72
2022/04/02 06:40:16;;;;;;;0.80;0.00;;;19.20;40.10;;;;;;5077731;28;20044;-72
2022/04/02 06:42:43;;;;;;;1.88;0.30;;;19.20;40.10;;;;;;5069389;28;20068;-72
2022/04/02 06:45:19;;;;;;;1.65;0.52;;;19.20;40.10;;;;;;5074027;28;20101;-72
2022/04/02 06:47:46;;;;;;;1.13;0.57;;;19.20;40.00;;;;;;5075927;28;20046;-73
2022/04/02 06:50:15;;;;;;;1.38;0.15;;;19.20;40.00;;;;;;5080968;28;20063;-73
2022/04/02 06:52:44;;;;;;;2.60;0.10;;;19.20;39.90;;;;;;5072285;28;20044;-72
2022/04/02 06:55:15;;;;;;;2.38;0.63;;;19.20;39.90;;;;;;5079798;28;20041;-72
2022/04/02 06:57:43;;;;;;;3.85;1.02;;;19.20;39.80;;;;;;5076769;28;20047;-71
2022/04/02 07:00:11;;;;;;;0.52;0.52;;;19.20;39.70;;;;;;5076856;28;20037;-72
2022/04/02 07:02:40;;;;;;;3.60;0.35;;;19.20;39.70;;;;;;5076843;28;20051;-72
2022/04/02 07:05:08;;;;;;;2.08;0.10;;;19.20;39.70;;;;;;5073157;28;20073;-72
2022/04/02 07:07:37;;;;;;;1.60;0.30;;;19.20;39.60;;;;;;5069805;28;20174;-72
2022/04/02 07:10:06;;;;;;;0.25;0.10;;;19.20;39.50;;;;;;5084480;28;20032;-72
2022/04/02 07:12:34;;;;;;;0.10;0.10;;;19.20;39.50;;;;;;5082610;28;20493;-72
2022/04/02 07:15:03;;;;;;;0.30;0.00;;;19.20;39.50;;;;;;5073838;28;20056;-72
2022/04/02 07:17:30;;;;;;;1.65;0.65;;;19.20;39.50;;;;;;5075369;28;20032;-72
2022/04/02 07:20:00;;;;;;;0.65;0.00;;;19.20;39.50;;;;;;5083992;28;20578;-72
2022/04/02 07:22:28;;;;;;;0.57;0.20;;;19.20;39.50;;;;;;5085504;28;20108;-72
2022/04/02 07:24:57;;;;;;;3.13;0.10;;;19.20;39.50;;;;;;5076968;28;20051;-72
2022/04/02 07:27:28;;;;;;;0.63;0.10;;;19.20;39.40;;;;;;5077789;28;20139;-72
2022/04/02 07:29:57;;;;;;;1.25;0.25;;;19.20;39.40;;;;;;5073146;28;20067;-71
2022/04/02 07:32:25;;;;;;;1.85;0.10;;;19.20;39.30;;;;;;5073977;28;20046;-72
2022/04/02 07:34:52;;;;;;;1.33;0.03;;;19.20;39.20;;;;;;5077694;28;20448;-74
2022/04/02 07:37:31;;;;;;;0.90;0.00;;;19.20;39.20;;;;;;5074791;28;20615;-72
2022/04/02 07:40:05;;;;;;;0.10;0.10;;;19.20;39.10;;;;;;5074221;28;20072;-72
2022/04/02 07:42:38;;;;;;;1.02;0.20;;;19.20;39.00;;;;;;5075675;28;20048;-72
2022/04/02 07:45:08;;;;;;;0.40;0.10;;;19.20;39.00;;;;;;5077110;28;20079;-73
2022/04/02 07:47:38;;;;;;;0.38;0.10;;;19.20;38.90;;;;;;5075293;28;20048;-73
2022/04/02 07:50:07;;;;;;;0.32;0.00;;;19.20;38.80;;;;;;5075828;28;20093;-75
2022/04/02 07:52:36;;;;;;;0.00;0.00;;;19.20;38.80;;;;;;5072257;28;20036;-71
2022/04/02 07:55:08;;;;;;;0.13;0.00;;;19.20;38.80;;;;;;5082850;28;20043;-72
2022/04/02 07:57:40;;;;;;;1.33;0.10;;;19.30;38.80;;;;;;5073192;28;20071;-72
2022/04/02 08:00:10;;;;;;;0.08;0.00;;;19.30;38.80;;;;;;5075546;28;20127;-72
2022/04/02 08:02:43;;;;;;;0.47;0.00;;;19.30;38.80;;;;;;5075647;28;20050;-73
2022/04/02 08:05:14;;;;;;;0.50;0.00;;;19.30;38.70;;;;;;5058054;28;20052;-73
2022/04/02 08:07:44;;;;;;;0.52;0.08;;;19.30;38.60;;;;;;5081703;28;20041;-72
2022/04/02 08:10:14;;;;;;;0.35;0.32;;;19.30;38.60;;;;;;5076729;28;20033;-72
2022/04/02 08:12:46;;;;;;;0.10;0.10;;;19.30;38.50;;;;;;5084155;28;20045;-72
2022/04/02 08:15:17;;;;;;;0.10;0.00;;;19.30;38.50;;;;;;5073891;28;20094;-72
2022/04/02 08:17:45;;;;;;;0.10;0.00;;;19.30;38.40;;;;;;5076936;28;20541;-72
2022/04/02 08:20:15;;;;;;;0.30;0.10;;;19.30;38.40;;;;;;5070958;28;20035;-71
2022/04/02 08:22:43;;;;;;;0.55;0.55;;;19.30;38.30;;;;;;5075195;28;20115;-72
2022/04/02 08:25:11;;;;;;;0.10;0.00;;;19.30;38.20;;;;;;5071509;28;20041;-72
2022/04/02 08:27:56;;;;;;;0.75;0.05;;;19.30;38.20;;;;;;5075323;28;20041;-71
2022/04/02 08:30:31;;;;;;;0.20;0.00;;;19.40;38.20;;;;;;5071528;28;20162;-72
2022/04/02 08:33:21;;;;;;;1.88;0.00;;;19.40;38.20;;;;;;5074847;28;20568;-70
2022/04/02 08:35:59;;;;;;;0.93;0.20;;;19.40;38.10;;;;;;5075119;28;20060;-72
2022/04/02 08:38:34;;;;;;;0.30;0.00;;;19.40;38.10;;;;;;5070846;28;20122;-72
2022/04/02 08:41:34;;;;;;;0.30;0.07;;;19.40;38.10;;;;;;5069950;28;20105;-72
2022/04/02 08:44:43;;;;;;;0.20;0.10;;;19.40;38.00;;;;;;5070549;28;20335;-72
2022/04/02 08:47:13;;;;;;;0.10;0.00;;;19.40;38.00;;;;;;5070561;28;20036;-72
2022/04/02 08:49:42;;;;;;;0.10;0.00;;;19.40;38.00;;;;;;5066998;28;20537;-71
2022/04/02 08:52:22;;;;;;;0.98;0.10;;;19.40;38.50;;;;;;5072320;28;20057;-71
2022/04/02 08:55:11;;;;;;;0.70;0.10;;;19.50;37.90;;;;;;5082464;28;20032;-72
2022/04/02 08:58:03;;;;;;;0.08;0.00;;;19.40;37.70;;;;;;5072155;28;20044;-72
2022/04/02 09:00:39;;;;;;;0.22;0.03;;;19.40;37.70;;;;;;5075335;28;20500;-72
2022/04/02 09:03:29;;;;;;;1.25;0.03;;;19.50;37.80;;;;;;5073245;28;20040;-72
2022/04/02 09:06:21;;;;;;;1.67;0.00;;;19.40;37.60;;;;;;5077117;28;20081;-72
2022/04/02 09:09:05;;;;;;;0.52;0.10;;;19.50;37.60;;;;;;5074863;28;20064;-71
2022/04/02 09:12:01;;;;;;;0.00;0.00;;;19.50;37.60;;;;;;5070735;28;20205;-71
2022/04/02 09:14:44;;;;;;;0.52;0.00;;;19.50;37.50;;;;;;5069548;28;20043;-73
2022/04/02 09:17:37;;;;;;;0.10;0.00;;;19.50;37.50;;;;;;5070909;28;20032;-72
2022/04/02 09:20:19;;;;;;;0.63;0.25;;;19.50;37.40;;;;;;5069366;28;20043;-72
2022/04/02 09:23:07;;;;;;;0.60;0.30;;;19.50;37.40;;;;;;5080726;28;20097;-72
2022/04/02 09:26:11;;;;;;;2.38;0.10;;;19.50;37.30;;;;;;5070329;28;20039;-72
2022/04/02 09:29:11;;;;;;;1.23;0.10;;;19.50;37.30;;;;;;5072769;28;20523;-72
2022/04/02 09:32:15;;;;;;;0.60;0.10;;;19.60;37.30;;;;;;5063396;28;20145;-69
2022/04/02 09:35:20;;;;;;;0.47;0.10;;;19.60;37.20;;;;;;5066071;28;20135;-72
2022/04/02 09:38:13;;;;;;;3.08;0.30;;;19.60;37.10;;;;;;5066456;28;20044;-72
2022/04/02 09:40:46;;;;;;;0.95;0.25;;;19.60;37.20;;;;;;5066749;28;20037;-72
2022/04/02 09:43:25;;;;;;;2.10;0.25;;;19.60;37.10;;;;;;5071319;28;20044;-72
2022/04/02 09:46:15;;;;;;;0.88;0.10;;;19.60;37.00;;;;;;5080862;28;20579;-72
2022/04/02 09:48:55;;;;;;;0.93;0.73;;;19.70;36.90;;;;;;5083446;28;20048;-72
2022/04/02 09:51:32;;;;;;;0.75;0.10;;;19.70;36.90;;;;;;5075836;28;20064;-72
2022/04/02 09:54:05;;;;;;;1.95;0.38;;;19.70;36.80;;;;;;5070224;28;20220;-72
2022/04/02 09:56:36;;;;;;;2.50;0.30;;;19.70;36.70;;;;;;5076201;28;20048;-72
2022/04/02 09:59:09;;;;;;;2.50;0.52;;;19.80;36.70;;;;;;5065432;28;20509;-72
2022/04/02 10:01:40;;;;;;;2.42;0.20;;;19.80;36.70;;;;;;5071098;28;20127;-72
2022/04/02 10:04:36;;;;;;;0.90;0.15;;;19.80;36.60;;;;;;5082297;28;20040;-72
2022/04/02 10:07:09;;;;;;;1.88;0.40;;;19.90;36.50;;;;;;5071519;28;20080;-72
2022/04/02 10:09:39;;;;;;;0.75;0.20;;;19.90;36.50;;;;;;5074057;28;20135;-72
2022/04/02 10:12:11;;;;;;;1.38;0.22;;;19.90;36.40;;;;;;5070545;28;20033;-72
2022/04/02 10:14:42;;;;;;;2.20;0.20;;;19.90;36.40;;;;;;5074455;28;20101;-72
2022/04/02 10:17:09;;;;;;;2.63;0.20;;;19.90;36.30;;;;;;5069511;28;20499;-72
2022/04/02 10:19:39;;;;;;;0.82;0.20;;;20.00;36.30;;;;;;5071829;28;20037;-72
2022/04/02 10:22:09;;;;;;;1.63;0.20;;;20.00;36.30;;;;;;5067791;28;20504;-72
2022/04/02 10:24:38;;;;;;;2.40;0.17;;;20.00;36.20;;;;;;5075884;28;20052;-72
2022/04/02 10:27:07;;;;;;;0.90;0.10;;;20.00;36.10;;;;;;5080461;28;20040;-72
2022/04/02 10:29:59;;;;;;;1.77;0.22;;;20.10;36.00;;;;;;5074362;28;20041;-72
2022/04/02 10:32:54;;;;;;;1.15;0.10;;;20.10;35.90;;;;;;5076009;28;20475;-72
2022/04/02 10:35:23;;;;;;;1.45;0.38;;;20.20;35.90;;;;;;5056512;28;20139;-72
2022/04/02 10:38:09;;;;;;;1.73;0.68;;;20.20;35.80;;;;;;5084872;28;20535;-72
2022/04/02 10:40:43;;;;;;;1.08;0.25;;;20.20;35.70;;;;;;5070562;28;20036;-72
2022/04/02 10:43:21;;;;;;;1.00;0.22;;;20.20;35.70;;;;;;5077798;28;20094;-72
2022/04/02 10:45:49;;;;;;;0.50;0.30;;;20.30;35.70;;;;;;5076973;28;20432;-73
2022/04/02 10:48:24;;;;;;;2.65;0.35;;;20.30;35.70;;;;;;5076580;28;20037;-73
2022/04/02 10:50:54;;;;;;;3.08;0.93;;;20.40;35.60;;;;;;5077849;28;20036;-73
2022/04/02 10:53:24;;;;;;;1.75;0.40;;;20.40;35.50;;;;;;5085263;28;20052;-71
2022/04/02 10:55:58;;;;;;;1.88;0.52;;;20.50;35.40;;;;;;5082071;28;20086;-73
2022/04/02 10:58:26;;;;;;;2.90;0.50;;;20.60;35.30;;;;;;5074630;28;20036;-72
2022/04/02 11:00:56;;;;;;;3.55;0.50;;;20.60;35.20;;;;;;5074298;28;20044;-72
2022/04/02 11:03:34;;;;;;;5.90;0.63;;;20.60;35.10;;;;;;5082333;28;20062;-73
2022/04/02 11:06:02;;;;;;;1.73;0.52;;;20.70;35.00;;;;;;5081847;28;20052;-72
2022/04/02 11:08:32;;;;;;;3.38;0.82;;;20.70;35.00;;;;;;5082794;28;20040;-72
2022/04/02 11:11:14;;;;;;;2.63;1.15;;;20.70;34.90;;;;;;5074471;28;20071;-72
2022/04/02 11:13:44;;;;;;;3.03;0.65;;;20.70;34.80;;;;;;5069104;28;20131;-72
2022/04/02 11:16:14;;;;;;;4.03;1.13;;;20.70;34.80;;;;;;5075149;28;20094;-72
2022/04/02 11:19:53;;;;;;;4.68;0.98;;;20.80;34.70;;;;;;5076145;28;20044;-72
2022/04/02 11:21:46;;;;;;;5.20;1.45;;;20.80;34.60;;;;;;5072986;28;20033;-73
2022/04/02 11:24:20;;;;;;;2.65;0.57;;;20.80;34.60;;;;;;5076961;28;20044;-73
2022/04/02 11:26:51;;;;;;;3.80;0.93;;;20.90;34.60;;;;;;5072867;28;20051;-72
2022/04/02 11:29:19;;;;;;;4.10;0.80;;;20.90;34.50;;;;;;5073083;28;20031;-72
2022/04/02 11:31:47;;;;;;;3.55;1.08;;;20.90;34.50;;;;;;5070001;28;20053;-73
2022/04/02 11:34:19;;;;;;;4.22;1.80;;;20.90;34.40;;;;;;5077255;28;20897;-72
2022/04/02 11:36:48;;;;;;;2.95;0.93;;;21.00;34.30;;;;;;5075405;28;20051;-72
2022/04/02 11:39:22;;;;;;;2.40;0.88;;;21.10;34.30;;;;;;5075172;28;20036;-72
2022/04/02 11:41:57;;;;;;;3.40;0.77;;;21.10;34.10;;;;;;5082582;28;20056;-72
2022/04/02 11:44:36;;;;;;;2.40;0.70;;;21.20;34.00;;;;;;5072423;28;20040;-72
2022/04/02 11:47:05;;;;;;;4.28;0.95;;;21.20;33.70;;;;;;5070575;28;20036;-72
2022/04/02 11:49:36;;;;;;;4.35;0.95;;;21.20;33.70;;;;;;5072184;28;20060;-72
2022/04/02 11:52:05;;;;;;;5.75;1.77;;;21.20;33.70;;;;;;5079587;28;20509;-72
2022/04/02 11:54:40;;;;;;;6.72;1.35;;;21.20;33.70;;;;;;5076852;28;20044;-72
2022/04/02 11:57:09;;;;;;;5.28;1.17;;;21.30;33.70;;;;;;5078378;28;20029;-72
2022/04/02 11:59:37;;;;;;;2.60;0.90;;;21.30;34.30;;;;;;5074675;28;20123;-60
2022/04/02 12:02:05;;;;;;;4.18;1.60;;;21.30;33.80;;;;;;5074152;28;20075;-72
2022/04/02 12:04:34;;;;;;;3.50;0.90;;;21.40;33.70;;;;;;5068821;28;20107;-72
2022/04/02 12:07:06;;;;;;;4.80;1.42;;;21.40;33.60;;;;;;5077597;28;20654;-72
2022/04/02 12:09:35;;;;;;;3.33;1.15;;;21.50;33.90;;;;;;5077249;28;20044;-72
2022/04/02 12:12:04;;;;;;;3.45;0.93;;;21.60;33.60;;;;;;5071707;28;20554;-72
2022/04/02 12:14:34;;;;;;;2.63;1.20;;;21.60;33.50;;;;;;5072123;28;20094;-72
2022/04/02 12:17:05;;;;;;;3.10;0.85;;;21.60;33.40;;;;;;5071913;28;20060;-72
2022/04/02 12:19:41;;;;;;;3.35;1.33;;;21.60;33.30;;;;;;5084420;28;20500;-73
2022/04/02 12:22:21;;;;;;;;;;;21.70;33.50;;;;;;5076227;28;20150;-71
2022/04/02 12:24:53;;;;;;;5.45;1.27;;;21.60;33.20;;;;;;5077481;28;20333;-72
2022/04/02 12:27:21;;;;;;;6.03;1.23;;;21.70;33.20;;;;;;5071661;28;20033;-72
2022/04/02 12:29:50;;;;;;;6.47;2.13;;;21.70;33.80;;;;;;5071061;28;20036;-73
2022/04/02 12:32:29;;;;;;;6.25;1.27;;;21.80;33.10;;;;;;5071202;28;20127;-72
2022/04/02 12:35:01;;;;;;;3.50;0.93;;;21.90;33.00;;;;;;5071987;28;20037;-72
2022/04/02 12:37:31;;;;;;;6.40;1.10;;;21.90;33.00;;;;;;5083827;28;20052;-72
2022/04/02 12:40:16;;;;;;;4.95;1.17;;;22.00;32.90;;;;;;5075607;28;20608;-72
2022/04/02 12:42:45;;;;;;;6.38;2.08;;;22.10;32.90;;;;;;5079830;28;20044;-72
2022/04/02 12:45:15;;;;;;;4.57;1.50;;;22.10;32.80;;;;;;5079203;28;20151;-72
2022/04/02 12:47:57;;;;;;;3.03;0.93;;;22.20;32.70;;;;;;5073215;28;20047;-71
2022/04/02 12:50:26;;;;;;;4.20;1.08;;;22.30;32.60;;;;;;5071922;28;20036;-71
2022/04/02 12:52:53;;;;;;;3.28;1.30;;;22.40;32.60;;;;;;5073817;28;20037;-74
2022/04/02 12:55:24;;;;;;;4.20;1.15;;;22.40;32.50;;;;;;5076324;28;20113;-74
2022/04/02 12:57:59;;;;;;;4.80;0.73;;;22.50;32.30;;;;;;5076518;28;20481;-74
2022/04/02 13:00:28;;;;;;;4.80;1.67;;;22.60;32.30;;;;;;5083571;28;20047;-73
2022/04/02 13:02:58;;;;;;;3.92;1.67;;;22.60;32.20;;;;;;5077563;28;20105;-73
2022/04/02 13:05:27;;;;;;;2.90;0.80;;;22.60;32.10;;;;;;5081333;28;20048;-72
2022/04/02 13:08:05;;;;;;;5.30;1.27;;;22.60;32.10;;;;;;5070715;28;20588;-72
2022/04/02 13:10:42;;;;;;;4.15;1.42;;;22.60;32.10;;;;;;5068249;28;20056;-73
2022/04/02 13:13:13;;;;;;;5.18;2.22;;;22.60;32.10;;;;;;5074443;28;20723;-73
2022/04/02 13:15:41;;;;;;;5.07;1.60;;;22.50;32.00;;;;;;5067346;28;20052;-72
2022/04/02 13:20:58;;;;;;;3.22;0.85;;;22.50;31.90;;;;;;5074800;28;20039;-73